Time;durP1;ratioP1;P1;durP2;ratioP2;P2;SDS_P1;SDS_P2;PMS_P1;PMS_P2;Temp;Humidity;BMP_temperature;BMP_pressure;BME280_temperature;BME280_humidity;BME280_pressure;Samples;Min_cycle;Max_cycle;Signal;HPM_P1;HPM_P2
2023/01/09 00:01:20;;;;;;;33.53;12.02;;;3.40;99.90;;;;;;4974596;28;20054;-70
2023/01/09 00:03:46;;;;;;;32.67;13.18;;;3.30;99.90;;;;;;4974698;28;20034;-70
2023/01/09 00:06:11;;;;;;;35.47;13.55;;;3.30;99.90;;;;;;4974364;28;20446;-70
2023/01/09 00:08:37;;;;;;;27.33;13.93;;;3.20;99.90;;;;;;4974730;28;20590;-70
2023/01/09 00:11:02;;;;;;;41.20;14.55;;;3.20;99.90;;;;;;4974420;28;20105;-70
2023/01/09 00:13:28;;;;;;;34.88;13.65;;;3.30;99.90;;;;;;4974941;28;20038;-70
2023/01/09 00:15:53;;;;;;;37.60;12.70;;;3.20;99.90;;;;;;4974483;28;20474;-71
2023/01/09 00:18:19;;;;;;;29.30;13.43;;;3.30;99.90;;;;;;4974213;28;20375;-70
2023/01/09 00:20:45;;;;;;;25.65;13.48;;;3.20;99.90;;;;;;4974386;28;20229;-70
2023/01/09 00:23:10;;;;;;;27.50;13.45;;;3.20;99.90;;;;;;4974323;28;20050;-70
2023/01/09 00:25:36;;;;;;;33.13;14.82;;;3.20;99.90;;;;;;4974910;28;20038;-70
2023/01/09 00:28:02;;;;;;;29.55;13.15;;;3.30;99.90;;;;;;4974161;28;20391;-71
2023/01/09 00:30:28;;;;;;;32.60;14.65;;;3.30;99.90;;;;;;4974332;28;20037;-70
2023/01/09 00:32:54;;;;;;;37.90;15.00;;;3.30;99.90;;;;;;4974722;28;20027;-70
2023/01/09 00:35:22;;;;;;;31.02;15.63;;;3.30;99.90;;;;;;4974155;28;20033;-70
2023/01/09 00:37:48;;;;;;;32.35;14.98;;;3.30;99.90;;;;;;4974269;28;20371;-71
2023/01/09 00:40:16;;;;;;;27.42;14.50;;;3.30;99.90;;;;;;4976115;28;20030;-70
2023/01/09 00:42:44;;;;;;;31.85;14.35;;;3.30;99.90;;;;;;4977545;28;20456;-71
2023/01/09 00:45:17;;;;;;;38.47;15.98;;;3.30;99.90;;;;;;4977564;28;20376;-70
2023/01/09 00:47:50;;;;;;;36.45;14.15;;;3.30;99.90;;;;;;4977810;28;20023;-70
2023/01/09 00:50:22;;;;;;;28.02;14.93;;;3.20;99.90;;;;;;4977615;28;20034;-70
2023/01/09 00:52:49;;;;;;;28.08;14.63;;;3.20;99.90;;;;;;4977543;28;20035;-70
2023/01/09 00:55:16;;;;;;;30.08;15.27;;;3.20;99.90;;;;;;4977345;28;20035;-70
2023/01/09 00:57:41;;;;;;;30.25;14.52;;;3.20;99.90;;;;;;4977935;28;20043;-70
2023/01/09 01:00:08;;;;;;;35.38;15.95;;;3.20;99.90;;;;;;4977175;28;20050;-70
2023/01/09 01:02:33;;;;;;;36.63;15.43;;;3.20;99.90;;;;;;4977435;28;20483;-70
2023/01/09 01:07:43;;;;;;;30.52;14.63;;;3.20;99.90;;;;;;4979549;23;20429;-70
2023/01/09 01:10:15;;;;;;;31.15;14.85;;;3.10;99.90;;;;;;4976089;28;20390;-70
2023/01/09 01:12:42;;;;;;;35.08;15.63;;;3.10;99.90;;;;;;4977337;28;20029;-70
2023/01/09 01:15:09;;;;;;;36.92;16.10;;;3.20;99.90;;;;;;4977074;28;20070;-70
2023/01/09 01:17:37;;;;;;;28.98;15.65;;;3.20;99.90;;;;;;4976730;28;20057;-71
2023/01/09 01:20:05;;;;;;;39.65;15.77;;;3.30;99.90;;;;;;4976960;28;20390;-71
2023/01/09 01:22:30;;;;;;;35.75;16.77;;;3.30;99.90;;;;;;4975729;28;20122;-70
2023/01/09 01:24:56;;;;;;;38.33;18.50;;;3.30;99.90;;;;;;4976874;28;20174;-70
2023/01/09 01:27:21;;;;;;;41.85;17.55;;;3.30;99.90;;;;;;4976887;28;20023;-70
2023/01/09 01:29:50;;;;;;;34.65;17.90;;;3.20;99.90;;;;;;4976614;28;20037;-70
2023/01/09 01:32:15;;;;;;;46.05;20.70;;;3.20;99.90;;;;;;4975373;28;20026;-70
2023/01/09 01:34:41;;;;;;;39.42;19.30;;;3.30;99.90;;;;;;4976638;28;20034;-70
2023/01/09 01:37:06;;;;;;;39.28;19.48;;;3.30;99.90;;;;;;4976475;28;20102;-70
2023/01/09 01:39:32;;;;;;;41.00;20.45;;;3.40;99.90;;;;;;4976827;28;20031;-70
2023/01/09 01:41:57;;;;;;;44.85;20.17;;;3.50;99.90;;;;;;4976378;28;20031;-70
2023/01/09 01:45:00;;;;;;;41.17;19.75;;;3.50;99.90;;;;;;4976491;28;20030;-70
2023/01/09 01:47:38;;;;;;;39.15;20.35;;;3.60;99.90;;;;;;4976517;28;20023;-70
2023/01/09 01:50:14;;;;;;;44.45;20.45;;;3.70;99.90;;;;;;4976241;28;20053;-71
2023/01/09 01:52:43;;;;;;;49.40;22.33;;;3.90;99.90;;;;;;4976086;28;20030;-70
2023/01/09 01:55:10;;;;;;;38.50;19.17;;;3.90;99.90;;;;;;4965513;28;20094;-70
2023/01/09 01:57:39;;;;;;;42.05;18.58;;;4.00;99.90;;;;;;4957289;28;20031;-70
2023/01/09 02:00:06;;;;;;;38.30;18.83;;;4.10;99.90;;;;;;4956868;29;20031;-70
2023/01/09 02:02:32;;;;;;;40.55;17.92;;;4.20;99.90;;;;;;4958481;28;20674;-71
2023/01/09 02:05:00;;;;;;;38.25;17.65;;;4.20;99.90;;;;;;4976226;28;20115;-71
2023/01/09 02:07:27;;;;;;;36.65;18.13;;;4.20;99.90;;;;;;4959668;28;20582;-70
2023/01/09 02:09:53;;;;;;;32.28;17.10;;;4.30;99.90;;;;;;4963910;28;20059;-71
2023/01/09 02:12:25;;;;;;;37.75;16.90;;;4.20;99.90;;;;;;4976270;28;20030;-70
2023/01/09 02:14:57;;;;;;;31.38;15.05;;;4.20;99.90;;;;;;4975190;28;20034;-71
2023/01/09 02:17:55;;;;;;;34.45;15.80;;;4.30;99.90;;;;;;4956522;28;20031;-71
2023/01/09 02:20:30;;;;;;;28.60;15.18;;;4.30;99.90;;;;;;4956410;28;20123;-70
2023/01/09 02:23:29;;;;;;;27.98;16.15;;;4.40;99.90;;;;;;4960546;28;20027;-71
2023/01/09 02:26:39;;;;;;;27.48;14.93;;;4.40;99.90;;;;;;4975939;28;20505;-70
2023/01/09 02:29:04;;;;;;;29.65;14.82;;;4.40;99.90;;;;;;4975579;28;20085;-71
2023/01/09 02:31:36;;;;;;;25.48;14.88;;;4.50;99.90;;;;;;4975592;28;20030;-71
2023/01/09 02:34:16;;;;;;;32.70;14.45;;;4.50;99.90;;;;;;4972292;28;20030;-71
2023/01/09 02:37:04;;;;;;;25.15;13.82;;;4.50;99.90;;;;;;4966620;28;20042;-71
2023/01/09 02:39:42;;;;;;;29.73;13.93;;;4.60;99.90;;;;;;4975444;28;20113;-70
2023/01/09 02:42:19;;;;;;;29.75;12.80;;;4.60;99.90;;;;;;4975736;28;20030;-70
2023/01/09 02:44:45;;;;;;;23.27;13.15;;;4.60;99.90;;;;;;4975707;28;20505;-70
2023/01/09 02:47:13;;;;;;;18.67;11.93;;;4.60;99.90;;;;;;4975435;28;20042;-70
2023/01/09 02:49:41;;;;;;;26.55;12.82;;;4.70;99.90;;;;;;4975313;28;20439;-70
2023/01/09 02:52:21;;;;;;;22.63;12.32;;;4.70;99.90;;;;;;4975315;28;20395;-70
2023/01/09 02:55:27;;;;;;;22.00;12.13;;;4.70;99.90;;;;;;4975541;28;20034;-70
2023/01/09 02:58:19;;;;;;;25.95;11.40;;;4.80;99.90;;;;;;4973853;28;20045;-70
2023/01/09 03:01:20;;;;;;;26.73;11.50;;;4.80;99.90;;;;;;4975389;28;20031;-70
2023/01/09 03:03:53;;;;;;;20.23;10.43;;;4.80;99.90;;;;;;4953792;28;20391;-70
2023/01/09 03:06:40;;;;;;;17.80;9.43;;;4.90;99.90;;;;;;4971569;28;20467;-71
2023/01/09 03:09:15;;;;;;;20.70;10.93;;;4.90;99.90;;;;;;4975235;28;20027;-70
2023/01/09 03:11:46;;;;;;;18.92;10.52;;;5.00;99.90;;;;;;4975235;28;20018;-70
2023/01/09 03:14:16;;;;;;;20.73;10.75;;;5.00;99.90;;;;;;4975329;28;20507;-70
2023/01/09 03:16:46;;;;;;;19.88;10.43;;;5.00;99.90;;;;;;4974757;28;20045;-70
2023/01/09 03:19:19;;;;;;;17.52;10.15;;;5.00;99.90;;;;;;4975421;28;20077;-70
2023/01/09 03:21:46;;;;;;;24.50;10.43;;;5.00;99.90;;;;;;4975239;28;20029;-70
2023/01/09 03:24:12;;;;;;;26.83;10.43;;;5.00;99.90;;;;;;4975300;28;20035;-70
2023/01/09 03:26:37;;;;;;;26.63;10.95;;;5.10;99.90;;;;;;4974972;28;20030;-70
2023/01/09 03:29:03;;;;;;;15.88;10.20;;;5.10;99.90;;;;;;4974696;28;20045;-70
2023/01/09 03:31:29;;;;;;;24.05;12.05;;;5.10;99.90;;;;;;4974836;28;20058;-70
2023/01/09 03:33:54;;;;;;;22.42;11.40;;;5.10;99.90;;;;;;4974883;28;20043;-70
2023/01/09 03:36:20;;;;;;;18.02;10.57;;;5.20;99.90;;;;;;4974580;28;20086;-70
2023/01/09 03:38:46;;;;;;;20.15;10.88;;;5.20;99.90;;;;;;4974561;28;20045;-70
2023/01/09 03:41:12;;;;;;;20.63;10.68;;;5.20;99.90;;;;;;4974679;28;20027;-70
2023/01/09 03:43:37;;;;;;;17.75;10.80;;;5.10;99.90;;;;;;4974609;28;20077;-70
2023/01/09 03:46:03;;;;;;;20.55;10.68;;;5.10;99.90;;;;;;4975053;28;20078;-70
2023/01/09 03:48:29;;;;;;;16.88;10.57;;;5.20;99.90;;;;;;4974670;28;20069;-70
2023/01/09 03:50:55;;;;;;;19.13;9.90;;;5.20;99.90;;;;;;4975230;28;20493;-70
2023/01/09 03:53:23;;;;;;;19.55;9.95;;;5.20;99.90;;;;;;4973898;28;20114;-70
2023/01/09 03:55:51;;;;;;;20.05;10.25;;;5.20;99.90;;;;;;4974670;28;20490;-70
2023/01/09 03:58:18;;;;;;;20.88;9.90;;;5.30;99.90;;;;;;4974490;28;20093;-70
2023/01/09 04:00:45;;;;;;;15.05;9.57;;;5.30;99.90;;;;;;4974684;28;20023;-70
2023/01/09 04:03:14;;;;;;;14.93;9.93;;;5.30;99.90;;;;;;4974549;28;20079;-70
2023/01/09 04:05:39;;;;;;;15.57;9.35;;;5.30;99.90;;;;;;4975019;28;20023;-70
2023/01/09 04:08:05;;;;;;;18.08;11.30;;;5.40;99.90;;;;;;4969601;28;20515;-71
2023/01/09 04:10:31;;;;;;;16.98;10.13;;;5.40;99.90;;;;;;4955421;28;20399;-71
2023/01/09 04:12:56;;;;;;;22.23;10.70;;;5.30;99.90;;;;;;4971388;28;20078;-70
2023/01/09 04:15:22;;;;;;;18.92;10.40;;;5.30;99.90;;;;;;4957203;28;20118;-71
2023/01/09 04:17:48;;;;;;;17.05;9.73;;;5.30;99.90;;;;;;4959015;28;20031;-70
2023/01/09 04:20:14;;;;;;;21.13;10.13;;;5.30;99.90;;;;;;4968520;28;20437;-70
2023/01/09 04:22:39;;;;;;;12.50;8.27;;;5.40;99.90;;;;;;4978368;28;20061;-70
2023/01/09 04:25:05;;;;;;;13.55;9.30;;;5.40;99.90;;;;;;4977955;28;20130;-70
2023/01/09 04:27:31;;;;;;;20.70;10.35;;;5.40;99.90;;;;;;4977830;28;20054;-70
2023/01/09 04:29:56;;;;;;;26.98;10.15;;;5.40;99.90;;;;;;4977942;28;20065;-70
2023/01/09 04:32:22;;;;;;;16.00;9.32;;;5.50;99.90;;;;;;4977810;28;20042;-71
2023/01/09 04:34:48;;;;;;;20.55;9.50;;;5.50;99.90;;;;;;4977945;28;20031;-70
2023/01/09 04:37:13;;;;;;;16.55;10.48;;;5.50;99.90;;;;;;4977980;28;20101;-70
2023/01/09 04:39:45;;;;;;;20.25;10.77;;;5.50;99.90;;;;;;4976415;28;20143;-71
2023/01/09 04:42:11;;;;;;;19.10;10.93;;;5.50;99.90;;;;;;4977928;28;20078;-71
2023/01/09 04:44:37;;;;;;;21.25;9.90;;;5.50;99.90;;;;;;4977914;28;20538;-70
2023/01/09 04:47:03;;;;;;;16.67;10.23;;;5.50;99.90;;;;;;4977514;28;20043;-70
2023/01/09 04:49:28;;;;;;;21.75;11.70;;;5.50;99.90;;;;;;4977928;28;20395;-70
2023/01/09 04:51:54;;;;;;;17.30;10.02;;;5.50;99.90;;;;;;4977467;28;20026;-70
2023/01/09 04:54:20;;;;;;;15.40;10.05;;;5.60;99.90;;;;;;4977619;28;20487;-70
2023/01/09 04:56:45;;;;;;;20.02;10.68;;;5.60;99.90;;;;;;4977487;28;20023;-70
2023/01/09 04:59:11;;;;;;;23.40;10.45;;;5.60;99.90;;;;;;4977230;28;20491;-71
2023/01/09 05:01:37;;;;;;;13.23;9.52;;;5.60;99.90;;;;;;4976932;28;20398;-71
2023/01/09 05:04:02;;;;;;;14.05;8.32;;;5.60;99.90;;;;;;4977336;28;20059;-71
2023/01/09 05:06:28;;;;;;;12.25;8.50;;;5.60;99.90;;;;;;4977044;28;20509;-70
2023/01/09 05:08:55;;;;;;;9.95;7.80;;;5.60;99.90;;;;;;4968674;28;20035;-71
2023/01/09 05:11:21;;;;;;;16.70;8.10;;;5.60;99.90;;;;;;4974077;28;20031;-70
2023/01/09 05:13:46;;;;;;;10.02;7.07;;;5.60;99.90;;;;;;4957785;28;20039;-70
2023/01/09 05:16:12;;;;;;;8.90;5.07;;;5.60;99.90;;;;;;4957644;28;20027;-71
2023/01/09 05:18:38;;;;;;;10.57;4.93;;;5.60;99.90;;;;;;4957571;28;20031;-71
2023/01/09 05:21:04;;;;;;;10.18;5.25;;;5.60;99.90;;;;;;4957842;28;20031;-70
2023/01/09 05:23:29;;;;;;;10.85;5.53;;;5.60;99.90;;;;;;4960303;28;20109;-71
2023/01/09 05:25:55;;;;;;;11.18;4.82;;;5.60;99.90;;;;;;4976774;28;20487;-70
2023/01/09 05:28:20;;;;;;;10.95;4.28;;;5.60;99.90;;;;;;4976773;28;20073;-71
2023/01/09 05:30:46;;;;;;;6.40;3.78;;;5.60;99.90;;;;;;4976783;28;20034;-70
2023/01/09 05:33:12;;;;;;;6.28;3.42;;;5.60;99.90;;;;;;4976831;28;20035;-70
2023/01/09 05:35:37;;;;;;;3.67;2.83;;;5.60;99.90;;;;;;4976573;28;20479;-70
2023/01/09 05:38:03;;;;;;;7.90;2.90;;;5.50;99.90;;;;;;4976617;28;20055;-71
2023/01/09 05:40:28;;;;;;;10.35;3.45;;;5.50;99.90;;;;;;4971343;28;20050;-71
2023/01/09 05:42:54;;;;;;;8.27;4.03;;;5.50;99.90;;;;;;4969042;28;20026;-71
2023/01/09 05:45:20;;;;;;;9.13;5.22;;;5.50;99.90;;;;;;4958372;28;20027;-70
2023/01/09 05:47:45;;;;;;;10.05;4.82;;;5.60;99.90;;;;;;4970322;28;20389;-70
2023/01/09 05:50:12;;;;;;;7.93;5.55;;;5.50;99.90;;;;;;4976442;28;20034;-70
2023/01/09 05:52:38;;;;;;;10.82;5.45;;;5.50;99.90;;;;;;4976574;28;20030;-70
2023/01/09 05:55:05;;;;;;;9.50;6.63;;;5.50;99.90;;;;;;4975687;28;20030;-70
2023/01/09 05:57:31;;;;;;;11.90;6.53;;;5.50;99.90;;;;;;4976368;28;20033;-71
2023/01/09 05:59:56;;;;;;;15.23;7.72;;;5.50;99.90;;;;;;4976112;28;20043;-70
2023/01/09 06:02:22;;;;;;;14.45;8.77;;;5.50;99.90;;;;;;4976258;28;20034;-71
2023/01/09 06:04:47;;;;;;;18.00;10.60;;;5.40;99.90;;;;;;4976152;28;20026;-71
2023/01/09 06:07:13;;;;;;;17.20;9.20;;;5.40;99.90;;;;;;4975602;28;20043;-71
2023/01/09 06:09:38;;;;;;;19.77;12.40;;;5.40;99.90;;;;;;4961315;28;20031;-71
2023/01/09 06:12:04;;;;;;;16.42;10.63;;;5.40;99.90;;;;;;4967320;28;20117;-71
2023/01/09 06:14:29;;;;;;;16.42;10.05;;;5.40;99.90;;;;;;4959743;28;20074;-71
2023/01/09 06:16:56;;;;;;;17.70;9.95;;;5.30;99.90;;;;;;4968827;28;20027;-71
2023/01/09 06:19:21;;;;;;;19.73;10.52;;;5.30;99.90;;;;;;4976099;28;20399;-71
2023/01/09 06:21:47;;;;;;;15.80;10.13;;;5.30;99.90;;;;;;4975874;28;20099;-71
2023/01/09 06:24:12;;;;;;;20.00;11.02;;;5.30;99.90;;;;;;4976370;28;20031;-70
2023/01/09 06:26:38;;;;;;;17.35;10.80;;;5.30;99.90;;;;;;4975821;28;20027;-71
2023/01/09 06:29:03;;;;;;;18.27;11.07;;;5.30;99.90;;;;;;4975734;28;20046;-71
2023/01/09 06:31:29;;;;;;;20.00;12.32;;;5.30;99.90;;;;;;4975462;28;20031;-71
2023/01/09 06:33:55;;;;;;;15.02;10.25;;;5.20;99.90;;;;;;4975672;28;20031;-71
2023/01/09 06:36:20;;;;;;;17.83;10.63;;;5.20;99.90;;;;;;4975546;28;20041;-70
2023/01/09 06:38:46;;;;;;;18.33;9.68;;;5.20;99.90;;;;;;4975043;28;20026;-70
2023/01/09 06:41:11;;;;;;;17.23;8.93;;;5.20;99.90;;;;;;4975499;28;20038;-70
2023/01/09 06:43:37;;;;;;;17.55;9.93;;;5.10;99.90;;;;;;4975441;28;20037;-70
2023/01/09 06:46:04;;;;;;;14.65;7.97;;;5.10;99.90;;;;;;4975379;28;20031;-70
2023/01/09 06:48:30;;;;;;;13.75;9.15;;;5.10;99.90;;;;;;4974104;28;20065;-70
2023/01/09 06:50:56;;;;;;;11.90;8.45;;;5.00;99.90;;;;;;4975722;28;20022;-70
2023/01/09 06:53:21;;;;;;;15.48;7.70;;;5.00;99.90;;;;;;4975275;28;20101;-70
2023/01/09 06:55:47;;;;;;;14.43;8.73;;;5.00;99.90;;;;;;4975332;28;20019;-70
2023/01/09 06:58:13;;;;;;;11.73;7.70;;;5.00;99.90;;;;;;4974978;28;20031;-71
2023/01/09 07:00:38;;;;;;;11.10;8.05;;;5.00;99.90;;;;;;4974268;28;20076;-70
2023/01/09 07:03:04;;;;;;;15.13;7.85;;;5.00;99.90;;;;;;4975265;28;20030;-70
2023/01/09 07:05:32;;;;;;;16.35;8.05;;;5.00;99.90;;;;;;4974893;28;20061;-71
2023/01/09 07:07:57;;;;;;;14.80;7.72;;;5.00;99.90;;;;;;4974907;28;20614;-70
2023/01/09 07:10:23;;;;;;;12.25;7.80;;;5.00;99.90;;;;;;4975259;28;20066;-70
2023/01/09 07:12:48;;;;;;;11.77;8.25;;;5.10;99.90;;;;;;4975041;28;20391;-70
2023/01/09 07:15:14;;;;;;;15.77;8.75;;;5.10;99.90;;;;;;4975100;28;20413;-70
2023/01/09 07:17:39;;;;;;;17.70;8.73;;;5.10;99.90;;;;;;4974667;28;20023;-71
2023/01/09 07:20:06;;;;;;;15.23;8.93;;;5.20;99.90;;;;;;4975385;28;20479;-70
2023/01/09 07:22:31;;;;;;;17.33;9.57;;;5.20;99.90;;;;;;4975087;28;20101;-71
2023/01/09 07:24:57;;;;;;;16.27;9.65;;;5.30;99.90;;;;;;4975073;28;20479;-70
2023/01/09 07:27:22;;;;;;;24.85;9.65;;;5.30;99.90;;;;;;4974811;28;20490;-70
2023/01/09 07:29:50;;;;;;;17.50;9.63;;;5.30;99.90;;;;;;4974821;28;20023;-71
2023/01/09 07:32:16;;;;;;;21.58;9.73;;;5.30;99.90;;;;;;4974363;28;20117;-70
2023/01/09 07:34:41;;;;;;;15.75;10.52;;;5.30;99.90;;;;;;4975060;28;20069;-70
2023/01/09 07:37:07;;;;;;;15.55;9.50;;;5.30;99.90;;;;;;4974706;28;20035;-70
2023/01/09 07:39:32;;;;;;;14.02;9.13;;;5.30;99.90;;;;;;4974651;28;20101;-71
2023/01/09 07:41:58;;;;;;;16.55;9.00;;;5.30;99.90;;;;;;4974805;28;20058;-70
2023/01/09 07:44:23;;;;;;;15.45;10.32;;;5.30;99.90;;;;;;4975289;28;20075;-70
2023/01/09 07:46:49;;;;;;;19.10;10.02;;;5.20;99.90;;;;;;4974652;28;20118;-71
2023/01/09 07:49:14;;;;;;;15.10;9.40;;;5.20;99.90;;;;;;4974071;28;20027;-70
2023/01/09 07:51:42;;;;;;;20.50;8.50;;;5.10;99.90;;;;;;4978876;28;20051;-70
2023/01/09 07:54:08;;;;;;;19.38;9.95;;;5.10;99.90;;;;;;4978571;28;20509;-70
2023/01/09 07:56:34;;;;;;;11.35;8.55;;;5.00;99.90;;;;;;4978501;28;20034;-70
2023/01/09 07:58:59;;;;;;;14.82;9.98;;;5.00;99.90;;;;;;4978242;28;20023;-71
2023/01/09 08:01:25;;;;;;;16.95;8.88;;;5.00;99.90;;;;;;4978434;28;20058;-70
2023/01/09 08:03:51;;;;;;;20.30;9.05;;;5.00;99.90;;;;;;4978440;28;20058;-70
2023/01/09 08:06:16;;;;;;;14.05;7.82;;;4.90;99.90;;;;;;4978421;28;20517;-70
2023/01/09 08:08:42;;;;;;;14.52;7.85;;;5.00;99.90;;;;;;4976976;28;20027;-70
2023/01/09 08:11:07;;;;;;;18.95;8.35;;;4.90;99.90;;;;;;4976972;28;20026;-70
2023/01/09 08:13:33;;;;;;;14.98;7.43;;;4.90;99.90;;;;;;4978227;28;20034;-71
2023/01/09 08:15:59;;;;;;;15.32;8.00;;;4.90;99.90;;;;;;4967624;28;20031;-70
2023/01/09 08:18:25;;;;;;;18.38;7.38;;;4.90;99.90;;;;;;4966844;28;20106;-70
2023/01/09 08:20:50;;;;;;;12.82;7.32;;;4.90;99.90;;;;;;4977868;28;20033;-71
2023/01/09 08:23:16;;;;;;;21.45;7.75;;;4.90;99.90;;;;;;4977920;28;20035;-70
2023/01/09 08:25:41;;;;;;;25.92;8.48;;;4.90;99.90;;;;;;4978519;28;20050;-70
2023/01/09 08:28:08;;;;;;;17.50;6.97;;;4.90;99.90;;;;;;4964542;28;20034;-71
2023/01/09 08:30:34;;;;;;;14.98;6.82;;;4.90;99.90;;;;;;4957260;28;20035;-70
2023/01/09 08:32:59;;;;;;;19.65;7.22;;;5.00;99.90;;;;;;4974914;28;20054;-70
2023/01/09 08:35:25;;;;;;;24.05;7.55;;;5.10;99.90;;;;;;4966312;28;20027;-70
2023/01/09 08:37:50;;;;;;;16.15;7.60;;;5.10;99.90;;;;;;4958463;28;20494;-70
2023/01/09 08:40:16;;;;;;;19.13;7.65;;;5.20;99.90;;;;;;4958261;28;20027;-71
2023/01/09 08:48:10;;;;;;;;;;;5.10;99.90;;;;;;4978247;28;20510;-70
2023/01/09 08:50:36;;;;;;;14.30;6.95;;;5.00;99.90;;;;;;4977505;28;19906;-70
2023/01/09 08:53:02;;;;;;;17.95;7.47;;;5.00;99.90;;;;;;4977254;28;20122;-70
2023/01/09 08:55:28;;;;;;;17.52;6.80;;;5.00;99.90;;;;;;4977633;28;20050;-70
2023/01/09 08:57:54;;;;;;;19.90;7.13;;;5.10;99.90;;;;;;4977417;28;20113;-70
2023/01/09 09:00:22;;;;;;;23.25;8.52;;;5.10;99.90;;;;;;4977076;28;20248;-70
2023/01/09 09:02:52;;;;;;;19.85;8.63;;;5.20;99.90;;;;;;4977579;28;20471;-70
2023/01/09 09:05:18;;;;;;;26.23;7.93;;;5.30;99.90;;;;;;4977652;28;20154;-70
2023/01/09 09:07:54;;;;;;;29.10;9.27;;;5.30;99.90;;;;;;4976960;28;20102;-70
2023/01/09 09:10:21;;;;;;;26.73;9.45;;;5.30;99.90;;;;;;4976026;28;20403;-70
2023/01/09 09:12:48;;;;;;;26.58;9.95;;;5.30;99.90;;;;;;4975743;28;20085;-71
2023/01/09 09:15:23;;;;;;;28.60;11.40;;;5.40;99.90;;;;;;4967727;28;20031;-70
2023/01/09 09:18:04;;;;;;;20.35;10.15;;;5.40;99.90;;;;;;4959172;28;20034;-70
2023/01/09 09:20:35;;;;;;;29.85;11.27;;;5.50;99.90;;;;;;4957903;28;20118;-70
2023/01/09 09:23:01;;;;;;;28.55;11.40;;;5.50;99.90;;;;;;4960097;28;20031;-71
2023/01/09 09:25:27;;;;;;;18.38;10.20;;;5.50;99.90;;;;;;4977076;28;20070;-71
2023/01/09 09:27:55;;;;;;;24.00;9.70;;;5.50;99.90;;;;;;4972059;28;20066;-70
2023/01/09 09:30:21;;;;;;;19.63;9.63;;;5.60;99.90;;;;;;4969264;28;20026;-70
2023/01/09 09:32:48;;;;;;;28.02;10.20;;;5.50;99.90;;;;;;4972471;28;20114;-70
2023/01/09 09:35:16;;;;;;;37.83;10.13;;;5.60;99.90;;;;;;4969513;28;20413;-70
2023/01/09 09:37:42;;;;;;;24.30;10.98;;;5.60;99.90;;;;;;4975396;28;20026;-70
2023/01/09 09:40:29;;;;;;;23.83;10.35;;;5.60;99.90;;;;;;4976571;28;20460;-70
2023/01/09 09:46:31;;;;;;;28.10;11.60;;;5.80;99.90;;;;;;4963129;28;20518;-70
2023/01/09 09:49:05;;;;;;;38.70;11.57;;;5.80;99.90;;;;;;4976568;28;20027;-70
2023/01/09 09:51:52;;;;;;;32.70;11.10;;;5.80;99.90;;;;;;4976881;28;20467;-70
2023/01/09 09:54:38;;;;;;;25.70;11.77;;;5.80;99.90;;;;;;4976826;28;20113;-70
2023/01/09 09:57:09;;;;;;;24.33;10.93;;;5.90;99.90;;;;;;4976427;28;20474;-71
2023/01/09 09:59:39;;;;;;;39.05;11.77;;;5.90;99.90;;;;;;4976449;28;20034;-70
2023/01/09 10:02:24;;;;;;;42.22;13.13;;;6.00;99.90;;;;;;4976075;28;20019;-70
2023/01/09 10:05:06;;;;;;;46.47;14.00;;;6.10;99.90;;;;;;4976399;28;20014;-70
2023/01/09 10:07:40;;;;;;;89.68;23.27;;;6.10;99.90;;;;;;4975662;28;20505;-70
2023/01/09 10:10:14;;;;;;;50.33;19.73;;;6.10;99.90;;;;;;4976145;28;20026;-70
2023/01/09 10:12:52;;;;;;;44.40;12.45;;;6.10;99.90;;;;;;4975346;28;20077;-70
2023/01/09 10:15:29;;;;;;;33.72;12.27;;;6.10;99.90;;;;;;4976023;28;20391;-70
2023/01/09 10:18:02;;;;;;;44.72;12.20;;;6.10;99.90;;;;;;4974344;28;20407;-71
2023/01/09 10:20:57;;;;;;;45.75;13.50;;;6.10;99.90;;;;;;4972855;28;20027;-70
2023/01/09 10:23:37;;;;;;;50.92;14.10;;;6.10;99.90;;;;;;4956493;28;20498;-71
2023/01/09 10:26:26;;;;;;;44.58;14.85;;;6.10;99.90;;;;;;4956638;28;20523;-70
2023/01/09 10:29:31;;;;;;;46.92;14.13;;;6.20;99.90;;;;;;4961617;28;20049;-70
2023/01/09 10:32:06;;;;;;;43.50;13.65;;;6.20;99.90;;;;;;4971555;28;20086;-70
2023/01/09 10:34:52;;;;;;;47.60;13.70;;;6.20;99.90;;;;;;4975640;28;20031;-70
2023/01/09 10:37:35;;;;;;;37.05;13.95;;;6.20;99.90;;;;;;4975723;28;20023;-70
2023/01/09 10:40:25;;;;;;;42.85;13.27;;;6.20;99.90;;;;;;4975566;28;20078;-70
2023/01/09 10:43:01;;;;;;;44.22;14.38;;;6.20;99.90;;;;;;4975885;28;20485;-70
2023/01/09 10:45:41;;;;;;;46.97;14.02;;;6.20;99.90;;;;;;4975496;28;20031;-70
2023/01/09 10:48:39;;;;;;;45.35;16.30;;;6.20;99.90;;;;;;4975630;28;20093;-70
2023/01/09 10:51:16;;;;;;;40.75;14.48;;;6.20;99.90;;;;;;4971225;28;20039;-70
2023/01/09 10:53:47;;;;;;;42.10;15.80;;;6.30;99.90;;;;;;4975214;28;20085;-70
2023/01/09 10:56:22;;;;;;;42.00;15.23;;;6.20;99.90;;;;;;4975277;28;20085;-70
2023/01/09 10:58:49;;;;;;;36.03;15.57;;;6.20;99.90;;;;;;4975211;28;20542;-71
2023/01/09 11:01:22;;;;;;;44.03;14.18;;;6.20;99.90;;;;;;4975457;28;20026;-70
2023/01/09 11:03:48;;;;;;;;;;;6.20;99.90;;;;;;4975568;28;20027;-70
2023/01/09 11:06:21;;;;;;;43.65;16.30;;;6.10;99.90;;;;;;4975128;28;19921;-70
2023/01/09 11:08:49;;;;;;;52.22;16.17;;;6.10;99.90;;;;;;4963557;28;20027;-70
2023/01/09 11:11:31;;;;;;;63.38;17.58;;;6.10;99.90;;;;;;4973709;28;20023;-70
2023/01/09 11:14:04;;;;;;;49.72;17.17;;;6.10;99.90;;;;;;4956065;28;20019;-70
2023/01/09 11:16:30;;;;;;;54.05;18.20;;;6.10;99.90;;;;;;4955780;28;20054;-70
2023/01/09 11:18:59;;;;;;;44.92;17.40;;;6.10;99.90;;;;;;4970605;28;20062;-70
2023/01/09 11:21:30;;;;;;;36.67;18.80;;;6.10;99.90;;;;;;4974835;28;20461;-71
2023/01/09 11:24:20;;;;;;;47.55;15.88;;;6.00;99.90;;;;;;4975050;28;20390;-70
2023/01/09 11:26:51;;;;;;;39.28;16.48;;;5.90;99.90;;;;;;4974638;28;20073;-70
2023/01/09 11:29:19;;;;;;;57.28;23.50;;;5.80;99.90;;;;;;4975215;28;20031;-70
2023/01/09 11:31:57;;;;;;;48.70;20.38;;;5.80;99.90;;;;;;4970310;28;20023;-70
2023/01/09 11:34:25;;;;;;;45.22;19.00;;;5.80;99.90;;;;;;4967126;28;20030;-70
2023/01/09 11:37:00;;;;;;;47.03;17.38;;;5.80;99.90;;;;;;4955851;28;20462;-70
2023/01/09 11:39:29;;;;;;;47.78;18.17;;;5.80;99.90;;;;;;4955329;28;20039;-70
2023/01/09 11:41:57;;;;;;;45.05;17.92;;;5.80;99.90;;;;;;4955677;29;20039;-70
2023/01/09 11:44:24;;;;;;;62.38;19.80;;;5.80;99.90;;;;;;4955687;28;20031;-70
2023/01/09 11:46:50;;;;;;;55.50;18.52;;;5.80;99.90;;;;;;4955345;28;20059;-70
2023/01/09 11:49:21;;;;;;;44.67;19.60;;;5.70;99.90;;;;;;4955316;28;20126;-70
2023/01/09 11:52:14;;;;;;;37.17;17.33;;;5.70;99.90;;;;;;4954259;28;20411;-70
2023/01/09 11:55:03;;;;;;;45.23;17.97;;;5.80;99.90;;;;;;4955414;29;20023;-71
2023/01/09 11:57:30;;;;;;;48.97;17.98;;;5.80;99.90;;;;;;4953990;28;20297;-70
2023/01/09 12:00:01;;;;;;;60.90;17.55;;;5.70;99.90;;;;;;4955219;29;20027;-70
2023/01/09 12:02:29;;;;;;;36.83;16.50;;;5.80;99.90;;;;;;4953979;29;20543;-70
2023/01/09 12:05:11;;;;;;;48.92;18.30;;;5.80;99.90;;;;;;4955281;29;20028;-70
2023/01/09 12:07:50;;;;;;;58.88;19.98;;;5.80;99.90;;;;;;4955199;28;20035;-70
2023/01/09 12:10:48;;;;;;;48.75;17.08;;;5.80;99.90;;;;;;4955650;29;20028;-70
2023/01/09 12:13:42;;;;;;;61.45;18.73;;;5.80;99.90;;;;;;4955330;29;20042;-70
2023/01/09 12:16:30;;;;;;;35.13;14.93;;;5.80;99.90;;;;;;4955328;28;20098;-70
2023/01/09 12:19:13;;;;;;;35.40;15.93;;;5.80;99.90;;;;;;4955108;29;20028;-70
2023/01/09 12:21:54;;;;;;;40.10;15.20;;;5.80;99.90;;;;;;4955426;28;20020;-70
2023/01/09 12:24:42;;;;;;;30.60;14.80;;;5.90;99.90;;;;;;4955812;28;20051;-70
2023/01/09 12:27:32;;;;;;;55.47;15.45;;;5.90;99.90;;;;;;4955036;28;20102;-70
2023/01/09 12:30:14;;;;;;;56.63;14.10;;;5.90;99.90;;;;;;4955546;29;20019;-70
2023/01/09 12:32:54;;;;;;;34.45;14.18;;;5.90;99.90;;;;;;4955308;29;20028;-70
2023/01/09 12:35:29;;;;;;;39.83;14.98;;;5.90;99.90;;;;;;4956249;28;20051;-70
2023/01/09 12:38:20;;;;;;;47.55;14.00;;;5.90;99.90;;;;;;4958453;28;20030;-70
2023/01/09 12:40:53;;;;;;;46.70;15.20;;;5.80;99.90;;;;;;4957242;28;20031;-70
2023/01/09 12:43:31;;;;;;;60.45;16.83;;;5.90;99.90;;;;;;4958746;29;20368;-70
2023/01/09 12:46:02;;;;;;;42.70;15.60;;;5.90;99.90;;;;;;4958585;28;20019;-70
2023/01/09 12:48:47;;;;;;;48.85;14.57;;;5.80;99.90;;;;;;4958322;29;20396;-70
2023/01/09 12:51:32;;;;;;;33.30;14.25;;;5.80;99.90;;;;;;4958532;28;20020;-70
2023/01/09 12:54:33;;;;;;;44.63;13.73;;;5.80;99.90;;;;;;4958446;29;20020;-70
2023/01/09 12:57:23;;;;;;;55.38;15.57;;;5.90;99.90;;;;;;4958237;28;20082;-70
2023/01/09 12:59:57;;;;;;;51.85;15.55;;;5.90;99.90;;;;;;4958263;29;20024;-70
2023/01/09 13:02:22;;;;;;;34.15;13.82;;;5.90;99.90;;;;;;4958265;29;20031;-70
2023/01/09 13:05:05;;;;;;;34.47;15.88;;;5.80;99.90;;;;;;4958005;29;20038;-70
2023/01/09 13:07:55;;;;;;;35.10;16.87;;;5.80;99.90;;;;;;4958074;28;20082;-70
2023/01/09 13:10:42;;;;;;;35.28;17.02;;;5.70;99.90;;;;;;4958035;29;20023;-70